sensor_id;sensor_type;location;lat;lon;timestamp;P1;durP1;ratioP1;P2;durP2;ratioP2
22256;SDS011;11297;42.686;23.374;2023-02-28T00:00:20;16.43;;;11.83;;
22256;SDS011;11297;42.686;23.374;2023-02-28T00:02:47;18.37;;;13.07;;
22256;SDS011;11297;42.686;23.374;2023-02-28T00:05:15;17.50;;;12.83;;
22256;SDS011;11297;42.686;23.374;2023-02-28T00:07:41;17.27;;;13.27;;
22256;SDS011;11297;42.686;23.374;2023-02-28T00:10:08;15.13;;;12.33;;
22256;SDS011;11297;42.686;23.374;2023-02-28T00:12:35;16.47;;;12.93;;
22256;SDS011;11297;42.686;23.374;2023-02-28T00:15:01;19.03;;;13.57;;
22256;SDS011;11297;42.686;23.374;2023-02-28T00:17:27;15.60;;;13.20;;
22256;SDS011;11297;42.686;23.374;2023-02-28T00:19:53;23.00;;;12.97;;
22256;SDS011;11297;42.686;23.374;2023-02-28T00:22:20;18.37;;;13.77;;
22256;SDS011;11297;42.686;23.374;2023-02-28T00:24:46;22.50;;;17.77;;
22256;SDS011;11297;42.686;23.374;2023-02-28T00:27:12;23.07;;;18.83;;
22256;SDS011;11297;42.686;23.374;2023-02-28T00:29:40;23.23;;;17.30;;
22256;SDS011;11297;42.686;23.374;2023-02-28T00:32:05;17.47;;;13.87;;
22256;SDS011;11297;42.686;23.374;2023-02-28T00:34:31;21.57;;;16.60;;
22256;SDS011;11297;42.686;23.374;2023-02-28T00:37:02;20.13;;;16.53;;
22256;SDS011;11297;42.686;23.374;2023-02-28T00:39:29;20.33;;;16.07;;
22256;SDS011;11297;42.686;23.374;2023-02-28T00:41:55;18.37;;;15.13;;
22256;SDS011;11297;42.686;23.374;2023-02-28T00:44:20;19.67;;;16.23;;
22256;SDS011;11297;42.686;23.374;2023-02-28T00:46:46;21.83;;;16.67;;
22256;SDS011;11297;42.686;23.374;2023-02-28T00:49:11;21.10;;;16.30;;
22256;SDS011;11297;42.686;23.374;2023-02-28T00:51:37;19.63;;;15.23;;
22256;SDS011;11297;42.686;23.374;2023-02-28T00:54:02;17.03;;;13.83;;
22256;SDS011;11297;42.686;23.374;2023-02-28T00:56:28;19.27;;;14.90;;
22256;SDS011;11297;42.686;23.374;2023-02-28T00:58:53;19.97;;;15.43;;
22256;SDS011;11297;42.686;23.374;2023-02-28T01:01:18;20.00;;;15.40;;
22256;SDS011;11297;42.686;23.374;2023-02-28T01:03:44;20.50;;;14.97;;
22256;SDS011;11297;42.686;23.374;2023-02-28T01:06:09;18.97;;;15.57;;
22256;SDS011;11297;42.686;23.374;2023-02-28T01:08:35;20.20;;;14.50;;
22256;SDS011;11297;42.686;23.374;2023-02-28T01:11:07;20.50;;;15.43;;
22256;SDS011;11297;42.686;23.374;2023-02-28T01:13:36;17.33;;;14.87;;
22256;SDS011;11297;42.686;23.374;2023-02-28T01:16:02;18.33;;;14.77;;
22256;SDS011;11297;42.686;23.374;2023-02-28T01:18:28;23.03;;;15.43;;
22256;SDS011;11297;42.686;23.374;2023-02-28T01:20:54;18.97;;;14.67;;
22256;SDS011;11297;42.686;23.374;2023-02-28T01:23:20;19.17;;;14.57;;
22256;SDS011;11297;42.686;23.374;2023-02-28T01:25:48;18.27;;;14.10;;
22256;SDS011;11297;42.686;23.374;2023-02-28T01:28:14;19.87;;;14.47;;
22256;SDS011;11297;42.686;23.374;2023-02-28T01:30:39;18.70;;;15.00;;
22256;SDS011;11297;42.686;23.374;2023-02-28T01:33:05;18.90;;;14.43;;
22256;SDS011;11297;42.686;23.374;2023-02-28T01:35:34;17.53;;;14.40;;
22256;SDS011;11297;42.686;23.374;2023-02-28T01:38:00;18.63;;;14.87;;
22256;SDS011;11297;42.686;23.374;2023-02-28T01:40:26;20.80;;;15.17;;
22256;SDS011;11297;42.686;23.374;2023-02-28T01:42:51;19.07;;;15.10;;
22256;SDS011;11297;42.686;23.374;2023-02-28T01:47:51;18.47;;;14.23;;
22256;SDS011;11297;42.686;23.374;2023-02-28T01:50:21;20.63;;;15.13;;
22256;SDS011;11297;42.686;23.374;2023-02-28T01:52:50;19.10;;;15.10;;
22256;SDS011;11297;42.686;23.374;2023-02-28T01:55:19;19.50;;;15.30;;
22256;SDS011;11297;42.686;23.374;2023-02-28T01:57:48;18.17;;;14.83;;
22256;SDS011;11297;42.686;23.374;2023-02-28T02:00:18;19.27;;;14.13;;
22256;SDS011;11297;42.686;23.374;2023-02-28T02:02:49;16.90;;;14.13;;
22256;SDS011;11297;42.686;23.374;2023-02-28T02:05:19;21.43;;;14.47;;
22256;SDS011;11297;42.686;23.374;2023-02-28T02:07:47;19.97;;;15.23;;
22256;SDS011;11297;42.686;23.374;2023-02-28T02:10:20;23.30;;;16.47;;
22256;SDS011;11297;42.686;23.374;2023-02-28T02:16:06;23.47;;;16.57;;
22256;SDS011;11297;42.686;23.374;2023-02-28T02:18:44;22.90;;;16.20;;
22256;SDS011;11297;42.686;23.374;2023-02-28T02:27:09;22.00;;;16.30;;
22256;SDS011;11297;42.686;23.374;2023-02-28T02:30:02;25.23;;;17.00;;
22256;SDS011;11297;42.686;23.374;2023-02-28T02:37:43;24.20;;;17.67;;
22256;SDS011;11297;42.686;23.374;2023-02-28T02:40:18;29.70;;;18.53;;
22256;SDS011;11297;42.686;23.374;2023-02-28T02:42:55;24.97;;;18.50;;
22256;SDS011;11297;42.686;23.374;2023-02-28T02:45:34;28.07;;;19.20;;
22256;SDS011;11297;42.686;23.374;2023-02-28T02:48:01;24.13;;;19.13;;
22256;SDS011;11297;42.686;23.374;2023-02-28T02:50:33;26.53;;;19.17;;
22256;SDS011;11297;42.686;23.374;2023-02-28T02:53:03;31.63;;;20.60;;
22256;SDS011;11297;42.686;23.374;2023-02-28T02:55:33;28.83;;;20.37;;
22256;SDS011;11297;42.686;23.374;2023-02-28T02:58:02;28.63;;;21.40;;
22256;SDS011;11297;42.686;23.374;2023-02-28T03:00:42;30.47;;;21.73;;
22256;SDS011;11297;42.686;23.374;2023-02-28T03:03:12;27.87;;;20.17;;
22256;SDS011;11297;42.686;23.374;2023-02-28T03:05:46;27.57;;;20.10;;
22256;SDS011;11297;42.686;23.374;2023-02-28T03:08:14;30.23;;;20.33;;
22256;SDS011;11297;42.686;23.374;2023-02-28T03:10:41;34.07;;;23.07;;
22256;SDS011;11297;42.686;23.374;2023-02-28T03:13:14;36.93;;;25.30;;
22256;SDS011;11297;42.686;23.374;2023-02-28T03:24:35;31.73;;;21.60;;
22256;SDS011;11297;42.686;23.374;2023-02-28T03:27:11;31.70;;;21.13;;
22256;SDS011;11297;42.686;23.374;2023-02-28T03:29:50;33.80;;;24.03;;
22256;SDS011;11297;42.686;23.374;2023-02-28T03:35:01;33.43;;;23.67;;
22256;SDS011;11297;42.686;23.374;2023-02-28T03:37:48;42.50;;;23.70;;
22256;SDS011;11297;42.686;23.374;2023-02-28T03:40:19;38.63;;;23.37;;
22256;SDS011;11297;42.686;23.374;2023-02-28T03:42:49;32.47;;;22.20;;
22256;SDS011;11297;42.686;23.374;2023-02-28T03:45:21;32.23;;;22.13;;
22256;SDS011;11297;42.686;23.374;2023-02-28T03:47:54;35.80;;;23.53;;
22256;SDS011;11297;42.686;23.374;2023-02-28T03:50:26;34.00;;;23.40;;
22256;SDS011;11297;42.686;23.374;2023-02-28T03:53:05;38.80;;;23.43;;
22256;SDS011;11297;42.686;23.374;2023-02-28T03:55:37;36.97;;;23.87;;
22256;SDS011;11297;42.686;23.374;2023-02-28T04:01:07;39.83;;;24.70;;
22256;SDS011;11297;42.686;23.374;2023-02-28T04:03:36;37.10;;;26.03;;
22256;SDS011;11297;42.686;23.374;2023-02-28T04:06:03;44.47;;;26.80;;
22256;SDS011;11297;42.686;23.374;2023-02-28T04:08:30;45.57;;;20.83;;
22256;SDS011;11297;42.686;23.374;2023-02-28T04:10:58;45.17;;;22.20;;
22256;SDS011;11297;42.686;23.374;2023-02-28T04:13:29;38.30;;;21.30;;
22256;SDS011;11297;42.686;23.374;2023-02-28T04:15:54;30.33;;;22.20;;
22256;SDS011;11297;42.686;23.374;2023-02-28T04:18:19;52.03;;;19.93;;
22256;SDS011;11297;42.686;23.374;2023-02-28T04:20:45;46.03;;;20.33;;
22256;SDS011;11297;42.686;23.374;2023-02-28T04:23:10;31.20;;;19.10;;
22256;SDS011;11297;42.686;23.374;2023-02-28T04:25:36;43.63;;;27.73;;
22256;SDS011;11297;42.686;23.374;2023-02-28T04:28:01;38.00;;;26.37;;
22256;SDS011;11297;42.686;23.374;2023-02-28T04:30:26;38.67;;;25.73;;
22256;SDS011;11297;42.686;23.374;2023-02-28T04:32:52;49.37;;;30.67;;
22256;SDS011;11297;42.686;23.374;2023-02-28T04:35:17;37.40;;;24.00;;
22256;SDS011;11297;42.686;23.374;2023-02-28T04:37:43;39.37;;;25.53;;
22256;SDS011;11297;42.686;23.374;2023-02-28T04:40:08;41.23;;;23.93;;
22256;SDS011;11297;42.686;23.374;2023-02-28T04:42:34;37.57;;;23.57;;
22256;SDS011;11297;42.686;23.374;2023-02-28T04:45:03;36.80;;;24.17;;
22256;SDS011;11297;42.686;23.374;2023-02-28T04:47:29;42.80;;;29.70;;
22256;SDS011;11297;42.686;23.374;2023-02-28T04:49:55;47.47;;;26.80;;
22256;SDS011;11297;42.686;23.374;2023-02-28T04:52:21;40.33;;;27.93;;
22256;SDS011;11297;42.686;23.374;2023-02-28T04:54:46;46.60;;;28.07;;
22256;SDS011;11297;42.686;23.374;2023-02-28T04:57:12;51.90;;;30.53;;
22256;SDS011;11297;42.686;23.374;2023-02-28T04:59:37;46.70;;;28.00;;
22256;SDS011;11297;42.686;23.374;2023-02-28T05:02:03;43.97;;;28.27;;
22256;SDS011;11297;42.686;23.374;2023-02-28T05:04:32;55.53;;;28.47;;
22256;SDS011;11297;42.686;23.374;2023-02-28T05:06:59;50.37;;;27.20;;
22256;SDS011;11297;42.686;23.374;2023-02-28T05:09:25;64.43;;;28.97;;
22256;SDS011;11297;42.686;23.374;2023-02-28T05:11:50;43.90;;;27.57;;
22256;SDS011;11297;42.686;23.374;2023-02-28T05:14:16;66.87;;;25.43;;
22256;SDS011;11297;42.686;23.374;2023-02-28T05:16:41;41.80;;;24.30;;
22256;SDS011;11297;42.686;23.374;2023-02-28T05:19:07;43.20;;;25.40;;
22256;SDS011;11297;42.686;23.374;2023-02-28T05:21:36;87.23;;;31.23;;
22256;SDS011;11297;42.686;23.374;2023-02-28T05:24:13;63.67;;;28.60;;
22256;SDS011;11297;42.686;23.374;2023-02-28T05:26:40;71.70;;;33.70;;
22256;SDS011;11297;42.686;23.374;2023-02-28T05:29:07;62.90;;;30.83;;
22256;SDS011;11297;42.686;23.374;2023-02-28T05:31:32;55.77;;;28.77;;
22256;SDS011;11297;42.686;23.374;2023-02-28T05:33:58;67.37;;;29.77;;
22256;SDS011;11297;42.686;23.374;2023-02-28T05:36:24;69.57;;;29.53;;
22256;SDS011;11297;42.686;23.374;2023-02-28T05:38:50;57.13;;;28.90;;
22256;SDS011;11297;42.686;23.374;2023-02-28T05:41:16;56.50;;;30.57;;
22256;SDS011;11297;42.686;23.374;2023-02-28T05:43:44;83.67;;;33.67;;
22256;SDS011;11297;42.686;23.374;2023-02-28T05:46:10;58.13;;;30.93;;
22256;SDS011;11297;42.686;23.374;2023-02-28T05:48:37;49.63;;;28.43;;
22256;SDS011;11297;42.686;23.374;2023-02-28T05:51:04;60.87;;;31.83;;
22256;SDS011;11297;42.686;23.374;2023-02-28T05:53:30;98.23;;;34.93;;
22256;SDS011;11297;42.686;23.374;2023-02-28T05:55:56;74.00;;;34.37;;
22256;SDS011;11297;42.686;23.374;2023-02-28T05:58:22;91.17;;;40.57;;
22256;SDS011;11297;42.686;23.374;2023-02-28T06:00:48;84.03;;;38.80;;
22256;SDS011;11297;42.686;23.374;2023-02-28T06:03:14;71.47;;;38.93;;
22256;SDS011;11297;42.686;23.374;2023-02-28T06:05:39;74.00;;;35.20;;
22256;SDS011;11297;42.686;23.374;2023-02-28T06:08:05;52.33;;;32.13;;
22256;SDS011;11297;42.686;23.374;2023-02-28T06:10:34;61.73;;;34.10;;
22256;SDS011;11297;42.686;23.374;2023-02-28T06:13:00;73.40;;;36.13;;
22256;SDS011;11297;42.686;23.374;2023-02-28T06:15:27;63.17;;;35.50;;
22256;SDS011;11297;42.686;23.374;2023-02-28T06:17:53;75.27;;;38.50;;
22256;SDS011;11297;42.686;23.374;2023-02-28T06:20:18;70.93;;;39.47;;
22256;SDS011;11297;42.686;23.374;2023-02-28T06:22:44;59.53;;;35.77;;
22256;SDS011;11297;42.686;23.374;2023-02-28T06:25:09;60.07;;;34.07;;
22256;SDS011;11297;42.686;23.374;2023-02-28T06:27:35;62.07;;;37.03;;
22256;SDS011;11297;42.686;23.374;2023-02-28T06:30:01;61.30;;;33.47;;
22256;SDS011;11297;42.686;23.374;2023-02-28T06:32:26;44.23;;;27.20;;
22256;SDS011;11297;42.686;23.374;2023-02-28T06:34:52;36.53;;;24.93;;
22256;SDS011;11297;42.686;23.374;2023-02-28T06:37:18;37.60;;;25.93;;
22256;SDS011;11297;42.686;23.374;2023-02-28T06:39:44;31.73;;;24.13;;
22256;SDS011;11297;42.686;23.374;2023-02-28T06:42:10;32.00;;;23.27;;
22256;SDS011;11297;42.686;23.374;2023-02-28T06:44:35;26.20;;;19.50;;
22256;SDS011;11297;42.686;23.374;2023-02-28T06:47:01;28.90;;;21.83;;
22256;SDS011;11297;42.686;23.374;2023-02-28T06:49:29;26.77;;;21.23;;
22256;SDS011;11297;42.686;23.374;2023-02-28T06:51:59;28.03;;;22.17;;
22256;SDS011;11297;42.686;23.374;2023-02-28T06:54:25;30.33;;;21.37;;
22256;SDS011;11297;42.686;23.374;2023-02-28T06:56:50;33.70;;;25.37;;
22256;SDS011;11297;42.686;23.374;2023-02-28T06:59:16;38.53;;;26.40;;
22256;SDS011;11297;42.686;23.374;2023-02-28T07:01:42;45.60;;;33.20;;
22256;SDS011;11297;42.686;23.374;2023-02-28T07:04:07;41.53;;;28.63;;
22256;SDS011;11297;42.686;23.374;2023-02-28T07:06:33;44.97;;;33.80;;
22256;SDS011;11297;42.686;23.374;2023-02-28T07:08:58;45.70;;;32.67;;
22256;SDS011;11297;42.686;23.374;2023-02-28T07:11:25;36.03;;;24.90;;
22256;SDS011;11297;42.686;23.374;2023-02-28T07:13:53;45.30;;;32.70;;
22256;SDS011;11297;42.686;23.374;2023-02-28T07:16:19;45.10;;;31.40;;
22256;SDS011;11297;42.686;23.374;2023-02-28T07:18:44;47.07;;;35.10;;
22256;SDS011;11297;42.686;23.374;2023-02-28T07:21:10;49.97;;;36.17;;
22256;SDS011;11297;42.686;23.374;2023-02-28T07:23:36;51.90;;;38.70;;
22256;SDS011;11297;42.686;23.374;2023-02-28T07:26:03;54.70;;;40.40;;
22256;SDS011;11297;42.686;23.374;2023-02-28T07:28:29;50.63;;;36.90;;
22256;SDS011;11297;42.686;23.374;2023-02-28T07:30:54;41.00;;;32.10;;
22256;SDS011;11297;42.686;23.374;2023-02-28T07:33:20;45.53;;;36.40;;
22256;SDS011;11297;42.686;23.374;2023-02-28T07:35:45;39.00;;;32.00;;
22256;SDS011;11297;42.686;23.374;2023-02-28T07:38:11;40.37;;;31.67;;
22256;SDS011;11297;42.686;23.374;2023-02-28T07:40:39;31.23;;;26.20;;
22256;SDS011;11297;42.686;23.374;2023-02-28T07:43:04;34.57;;;27.47;;
22256;SDS011;11297;42.686;23.374;2023-02-28T07:45:30;36.40;;;28.67;;
22256;SDS011;11297;42.686;23.374;2023-02-28T07:47:59;35.83;;;28.47;;
22256;SDS011;11297;42.686;23.374;2023-02-28T07:50:25;40.17;;;31.10;;
22256;SDS011;11297;42.686;23.374;2023-02-28T07:52:54;36.00;;;28.80;;
22256;SDS011;11297;42.686;23.374;2023-02-28T07:55:19;35.63;;;29.03;;
22256;SDS011;11297;42.686;23.374;2023-02-28T07:57:45;36.67;;;30.87;;
22256;SDS011;11297;42.686;23.374;2023-02-28T08:00:10;33.77;;;26.83;;
22256;SDS011;11297;42.686;23.374;2023-02-28T08:02:37;35.87;;;28.57;;
22256;SDS011;11297;42.686;23.374;2023-02-28T08:05:03;37.70;;;27.93;;
22256;SDS011;11297;42.686;23.374;2023-02-28T08:07:29;31.13;;;26.87;;
22256;SDS011;11297;42.686;23.374;2023-02-28T08:09:54;34.80;;;27.03;;
22256;SDS011;11297;42.686;23.374;2023-02-28T08:12:20;29.73;;;24.87;;
22256;SDS011;11297;42.686;23.374;2023-02-28T08:14:45;33.83;;;25.50;;
22256;SDS011;11297;42.686;23.374;2023-02-28T08:17:11;33.47;;;25.83;;
22256;SDS011;11297;42.686;23.374;2023-02-28T08:19:36;27.87;;;24.37;;
22256;SDS011;11297;42.686;23.374;2023-02-28T08:22:02;29.80;;;24.87;;
22256;SDS011;11297;42.686;23.374;2023-02-28T08:24:28;31.87;;;25.60;;
22256;SDS011;11297;42.686;23.374;2023-02-28T08:26:54;30.03;;;22.97;;
22256;SDS011;11297;42.686;23.374;2023-02-28T08:29:20;31.03;;;24.03;;
22256;SDS011;11297;42.686;23.374;2023-02-28T08:31:45;31.93;;;25.07;;
22256;SDS011;11297;42.686;23.374;2023-02-28T08:34:11;32.50;;;25.20;;
22256;SDS011;11297;42.686;23.374;2023-02-28T08:36:39;30.77;;;24.37;;
22256;SDS011;11297;42.686;23.374;2023-02-28T08:39:05;31.90;;;25.00;;
22256;SDS011;11297;42.686;23.374;2023-02-28T08:41:31;26.33;;;18.80;;
22256;SDS011;11297;42.686;23.374;2023-02-28T08:43:57;28.70;;;18.27;;
22256;SDS011;11297;42.686;23.374;2023-02-28T08:46:23;31.47;;;18.00;;
22256;SDS011;11297;42.686;23.374;2023-02-28T08:48:51;24.30;;;16.27;;
22256;SDS011;11297;42.686;23.374;2023-02-28T08:51:18;26.93;;;18.07;;
22256;SDS011;11297;42.686;23.374;2023-02-28T08:53:51;23.00;;;15.67;;
22256;SDS011;11297;42.686;23.374;2023-02-28T08:56:26;25.97;;;17.73;;
22256;SDS011;11297;42.686;23.374;2023-02-28T08:58:54;26.70;;;18.07;;
22256;SDS011;11297;42.686;23.374;2023-02-28T09:01:22;24.13;;;15.90;;
22256;SDS011;11297;42.686;23.374;2023-02-28T09:03:49;25.40;;;15.17;;
22256;SDS011;11297;42.686;23.374;2023-02-28T09:06:16;29.23;;;16.13;;
22256;SDS011;11297;42.686;23.374;2023-02-28T09:08:43;30.70;;;17.33;;
22256;SDS011;11297;42.686;23.374;2023-02-28T09:11:09;25.67;;;16.07;;
22256;SDS011;11297;42.686;23.374;2023-02-28T09:13:35;25.00;;;14.23;;
22256;SDS011;11297;42.686;23.374;2023-02-28T09:16:02;25.73;;;15.87;;
22256;SDS011;11297;42.686;23.374;2023-02-28T09:18:29;26.03;;;16.27;;
22256;SDS011;11297;42.686;23.374;2023-02-28T09:20:54;24.63;;;14.47;;
22256;SDS011;11297;42.686;23.374;2023-02-28T09:23:20;25.37;;;16.23;;
22256;SDS011;11297;42.686;23.374;2023-02-28T09:25:55;21.17;;;15.03;;
22256;SDS011;11297;42.686;23.374;2023-02-28T09:28:21;24.43;;;16.37;;
22256;SDS011;11297;42.686;23.374;2023-02-28T09:30:48;25.47;;;17.23;;
22256;SDS011;11297;42.686;23.374;2023-02-28T09:33:15;24.43;;;16.20;;
22256;SDS011;11297;42.686;23.374;2023-02-28T09:35:41;24.10;;;14.73;;
22256;SDS011;11297;42.686;23.374;2023-02-28T09:38:07;24.37;;;15.27;;
22256;SDS011;11297;42.686;23.374;2023-02-28T09:40:37;21.47;;;14.57;;
22256;SDS011;11297;42.686;23.374;2023-02-28T09:43:10;21.60;;;14.20;;
22256;SDS011;11297;42.686;23.374;2023-02-28T09:45:40;20.73;;;13.70;;
22256;SDS011;11297;42.686;23.374;2023-02-28T09:48:12;21.53;;;13.93;;
22256;SDS011;11297;42.686;23.374;2023-02-28T09:50:46;21.63;;;14.17;;
22256;SDS011;11297;42.686;23.374;2023-02-28T09:53:19;19.03;;;12.97;;
22256;SDS011;11297;42.686;23.374;2023-02-28T09:55:53;24.10;;;14.70;;
22256;SDS011;11297;42.686;23.374;2023-02-28T09:58:26;23.10;;;12.50;;
22256;SDS011;11297;42.686;23.374;2023-02-28T10:03:57;20.07;;;13.63;;
22256;SDS011;11297;42.686;23.374;2023-02-28T10:06:29;21.40;;;13.03;;
22256;SDS011;11297;42.686;23.374;2023-02-28T10:09:01;15.63;;;12.20;;
22256;SDS011;11297;42.686;23.374;2023-02-28T10:11:29;20.37;;;12.70;;
22256;SDS011;11297;42.686;23.374;2023-02-28T10:14:00;22.87;;;12.83;;
22256;SDS011;11297;42.686;23.374;2023-02-28T10:19:23;20.07;;;12.30;;
22256;SDS011;11297;42.686;23.374;2023-02-28T10:21:59;20.87;;;11.57;;
22256;SDS011;11297;42.686;23.374;2023-02-28T10:24:35;19.97;;;10.90;;
22256;SDS011;11297;42.686;23.374;2023-02-28T10:27:20;18.43;;;11.60;;
22256;SDS011;11297;42.686;23.374;2023-02-28T10:29:50;18.00;;;10.37;;
22256;SDS011;11297;42.686;23.374;2023-02-28T10:32:21;16.60;;;12.07;;
22256;SDS011;11297;42.686;23.374;2023-02-28T10:34:55;30.10;;;11.33;;
22256;SDS011;11297;42.686;23.374;2023-02-28T10:37:25;16.67;;;10.77;;
22256;SDS011;11297;42.686;23.374;2023-02-28T10:39:52;17.17;;;10.13;;
22256;SDS011;11297;42.686;23.374;2023-02-28T10:42:22;18.23;;;12.47;;
22256;SDS011;11297;42.686;23.374;2023-02-28T10:45:12;17.37;;;9.67;;
22256;SDS011;11297;42.686;23.374;2023-02-28T10:47:49;15.60;;;10.23;;
22256;SDS011;11297;42.686;23.374;2023-02-28T10:52:52;21.53;;;14.10;;
22256;SDS011;11297;42.686;23.374;2023-02-28T10:55:23;18.60;;;11.90;;
22256;SDS011;11297;42.686;23.374;2023-02-28T10:57:52;20.40;;;11.80;;
22256;SDS011;11297;42.686;23.374;2023-02-28T11:02:46;20.80;;;13.10;;
22256;SDS011;11297;42.686;23.374;2023-02-28T11:05:26;17.03;;;12.07;;
22256;SDS011;11297;42.686;23.374;2023-02-28T11:07:55;21.40;;;11.93;;
22256;SDS011;11297;42.686;23.374;2023-02-28T11:10:25;22.57;;;12.03;;
22256;SDS011;11297;42.686;23.374;2023-02-28T11:12:56;14.87;;;10.90;;
22256;SDS011;11297;42.686;23.374;2023-02-28T11:20:52;19.13;;;12.77;;
22256;SDS011;11297;42.686;23.374;2023-02-28T11:23:21;17.27;;;12.30;;
22256;SDS011;11297;42.686;23.374;2023-02-28T11:25:51;20.07;;;12.37;;
22256;SDS011;11297;42.686;23.374;2023-02-28T11:31:08;26.17;;;13.27;;
22256;SDS011;11297;42.686;23.374;2023-02-28T11:33:51;18.10;;;11.70;;
22256;SDS011;11297;42.686;23.374;2023-02-28T11:36:20;24.43;;;13.03;;
22256;SDS011;11297;42.686;23.374;2023-02-28T11:38:50;21.57;;;13.07;;
22256;SDS011;11297;42.686;23.374;2023-02-28T11:44:05;22.33;;;12.90;;
22256;SDS011;11297;42.686;23.374;2023-02-28T11:46:52;19.70;;;12.03;;
22256;SDS011;11297;42.686;23.374;2023-02-28T11:49:27;21.83;;;12.93;;
22256;SDS011;11297;42.686;23.374;2023-02-28T11:54:31;19.00;;;11.53;;
22256;SDS011;11297;42.686;23.374;2023-02-28T11:57:25;24.60;;;12.93;;
22256;SDS011;11297;42.686;23.374;2023-02-28T12:05:43;22.53;;;13.40;;
22256;SDS011;11297;42.686;23.374;2023-02-28T12:16:22;18.80;;;10.83;;
22256;SDS011;11297;42.686;23.374;2023-02-28T12:19:01;16.23;;;11.27;;
22256;SDS011;11297;42.686;23.374;2023-02-28T12:21:32;15.93;;;11.97;;
22256;SDS011;11297;42.686;23.374;2023-02-28T12:26:48;17.67;;;11.53;;
22256;SDS011;11297;42.686;23.374;2023-02-28T12:31:52;19.03;;;13.53;;
22256;SDS011;11297;42.686;23.374;2023-02-28T12:34:22;19.23;;;10.67;;
22256;SDS011;11297;42.686;23.374;2023-02-28T12:37:07;17.73;;;10.67;;
22256;SDS011;11297;42.686;23.374;2023-02-28T12:39:41;21.10;;;11.20;;
22256;SDS011;11297;42.686;23.374;2023-02-28T12:42:12;17.63;;;10.03;;
22256;SDS011;11297;42.686;23.374;2023-02-28T12:44:52;18.17;;;10.30;;
22256;SDS011;11297;42.686;23.374;2023-02-28T12:47:22;18.57;;;12.03;;
22256;SDS011;11297;42.686;23.374;2023-02-28T12:49:50;20.73;;;10.80;;
22256;SDS011;11297;42.686;23.374;2023-02-28T12:52:25;15.43;;;11.43;;
22256;SDS011;11297;42.686;23.374;2023-02-28T13:05:28;24.90;;;13.87;;
22256;SDS011;11297;42.686;23.374;2023-02-28T13:10:46;20.07;;;10.40;;
22256;SDS011;11297;42.686;23.374;2023-02-28T13:13:23;20.57;;;12.10;;
22256;SDS011;11297;42.686;23.374;2023-02-28T13:16:00;21.77;;;12.13;;
22256;SDS011;11297;42.686;23.374;2023-02-28T13:21:04;23.30;;;11.80;;
22256;SDS011;11297;42.686;23.374;2023-02-28T13:26:12;17.77;;;11.93;;
22256;SDS011;11297;42.686;23.374;2023-02-28T13:28:57;20.03;;;12.13;;
22256;SDS011;11297;42.686;23.374;2023-02-28T13:31:29;23.97;;;12.40;;
22256;SDS011;11297;42.686;23.374;2023-02-28T13:36:27;21.47;;;12.63;;
22256;SDS011;11297;42.686;23.374;2023-02-28T13:38:59;24.10;;;14.63;;
22256;SDS011;11297;42.686;23.374;2023-02-28T13:44:11;19.50;;;11.77;;
22256;SDS011;11297;42.686;23.374;2023-02-28T13:51:48;17.60;;;11.70;;
22256;SDS011;11297;42.686;23.374;2023-02-28T13:56:49;21.60;;;12.07;;
22256;SDS011;11297;42.686;23.374;2023-02-28T14:05:13;22.10;;;9.67;;
22256;SDS011;11297;42.686;23.374;2023-02-28T14:07:46;20.07;;;11.07;;
22256;SDS011;11297;42.686;23.374;2023-02-28T14:10:22;16.17;;;10.50;;
22256;SDS011;11297;42.686;23.374;2023-02-28T14:20:54;17.83;;;10.27;;
22256;SDS011;11297;42.686;23.374;2023-02-28T14:35:22;19.17;;;11.87;;
22256;SDS011;11297;42.686;23.374;2023-02-28T14:38:05;15.60;;;10.77;;
22256;SDS011;11297;42.686;23.374;2023-02-28T14:40:38;18.07;;;11.37;;
22256;SDS011;11297;42.686;23.374;2023-02-28T14:43:05;17.23;;;10.20;;
22256;SDS011;11297;42.686;23.374;2023-02-28T14:45:42;20.03;;;11.57;;
22256;SDS011;11297;42.686;23.374;2023-02-28T14:48:11;24.17;;;11.60;;
22256;SDS011;11297;42.686;23.374;2023-02-28T14:50:36;19.37;;;12.47;;
22256;SDS011;11297;42.686;23.374;2023-02-28T14:53:02;18.23;;;10.70;;
22256;SDS011;11297;42.686;23.374;2023-02-28T14:55:30;18.97;;;10.47;;
22256;SDS011;11297;42.686;23.374;2023-02-28T14:58:00;20.40;;;11.20;;
22256;SDS011;11297;42.686;23.374;2023-02-28T15:00:30;19.00;;;10.90;;
22256;SDS011;11297;42.686;23.374;2023-02-28T15:02:57;22.47;;;12.03;;
22256;SDS011;11297;42.686;23.374;2023-02-28T15:05:31;13.50;;;10.07;;
22256;SDS011;11297;42.686;23.374;2023-02-28T15:08:16;17.70;;;10.37;;
22256;SDS011;11297;42.686;23.374;2023-02-28T15:10:43;18.97;;;9.93;;
22256;SDS011;11297;42.686;23.374;2023-02-28T15:13:12;20.73;;;10.43;;
22256;SDS011;11297;42.686;23.374;2023-02-28T15:18:10;12.57;;;8.60;;
22256;SDS011;11297;42.686;23.374;2023-02-28T15:20:58;15.40;;;10.90;;
22256;SDS011;11297;42.686;23.374;2023-02-28T15:23:29;16.93;;;9.47;;
22256;SDS011;11297;42.686;23.374;2023-02-28T15:25:56;18.67;;;11.27;;
22256;SDS011;11297;42.686;23.374;2023-02-28T15:28:23;14.27;;;10.00;;
22256;SDS011;11297;42.686;23.374;2023-02-28T15:30:50;13.13;;;10.63;;
22256;SDS011;11297;42.686;23.374;2023-02-28T15:33:22;15.53;;;10.87;;
22256;SDS011;11297;42.686;23.374;2023-02-28T15:38:40;16.97;;;9.90;;
22256;SDS011;11297;42.686;23.374;2023-02-28T15:41:21;16.60;;;10.83;;
22256;SDS011;11297;42.686;23.374;2023-02-28T15:47:03;13.80;;;10.67;;
22256;SDS011;11297;42.686;23.374;2023-02-28T15:49:36;13.07;;;9.70;;
22256;SDS011;11297;42.686;23.374;2023-02-28T15:52:34;14.37;;;10.17;;
22256;SDS011;11297;42.686;23.374;2023-02-28T15:55:10;12.80;;;10.07;;
22256;SDS011;11297;42.686;23.374;2023-02-28T15:57:42;12.87;;;10.23;;
22256;SDS011;11297;42.686;23.374;2023-02-28T16:00:10;18.30;;;14.80;;
22256;SDS011;11297;42.686;23.374;2023-02-28T16:02:39;30.37;;;26.50;;
22256;SDS011;11297;42.686;23.374;2023-02-28T16:07:34;93.87;;;73.13;;
22256;SDS011;11297;42.686;23.374;2023-02-28T16:10:01;69.40;;;56.43;;
22256;SDS011;11297;42.686;23.374;2023-02-28T16:12:27;39.60;;;35.27;;
22256;SDS011;11297;42.686;23.374;2023-02-28T16:14:55;53.77;;;43.83;;
22256;SDS011;11297;42.686;23.374;2023-02-28T16:17:27;33.70;;;28.37;;
22256;SDS011;11297;42.686;23.374;2023-02-28T16:19:57;36.80;;;29.47;;
22256;SDS011;11297;42.686;23.374;2023-02-28T16:22:23;20.13;;;16.33;;
22256;SDS011;11297;42.686;23.374;2023-02-28T16:24:49;27.20;;;22.30;;
22256;SDS011;11297;42.686;23.374;2023-02-28T16:27:18;44.47;;;29.47;;
22256;SDS011;11297;42.686;23.374;2023-02-28T16:29:50;139.27;;;49.33;;
22256;SDS011;11297;42.686;23.374;2023-02-28T16:32:15;36.77;;;14.10;;
22256;SDS011;11297;42.686;23.374;2023-02-28T16:34:42;15.77;;;7.50;;
22256;SDS011;11297;42.686;23.374;2023-02-28T16:37:15;13.93;;;8.43;;
22256;SDS011;11297;42.686;23.374;2023-02-28T16:39:43;12.20;;;8.43;;
22256;SDS011;11297;42.686;23.374;2023-02-28T16:42:10;10.63;;;8.03;;